Arrantzale — EBVT — position and weather

sailwx.info

Track history (hours):
 
Tides and Currents Weather Stations Pressure Air Temp Water Temp Dewpoint Dewpoint Depression Visibility Wind Speed Wind Dir Waves Ship Positions

Arrantzale

Last reported at 2017-Mar-30 03:23 UTC. Time now 2017-Mar-30 06:54 UTC.
Position N 43°56' W 001°54'.

Length 32 m.

Type: Fishing. MMSI: 224065290.

Date/timePositionNaut miles runAvg speedWind from/ knotsBaromVisibWave heightAir tempDewpointWater temp
2017-Mar-30 03:23N 43°56' W 001°54'2 2.1
2017-Mar-30 02:33N 43°58' W 001°54'1 0.9
2017-Mar-30 01:22N 43°58' W 001°56'30 6.1
2017-Mar-29 20:29N 43°29' W 001°49'1 1.2
2017-Mar-29 19:33N 43°28' W 001°48'5 4.8
2017-Mar-29 18:33N 43°24' W 001°52'3 2.8
2017-Mar-29 17:33N 43°26' W 001°50'3 3.4
2017-Mar-29 16:33N 43°23' W 001°47'0 0.0
2017-Mar-29 15:33N 43°23' W 001°47'0 0.0
2017-Mar-29 14:33N 43°23' W 001°47'0 0.0
2017-Mar-29 13:33N 43°23' W 001°47'0 0.0
2017-Mar-29 12:33N 43°23' W 001°47'0 0.0
2017-Mar-29 11:33N 43°23' W 001°47'0 0.0
2017-Mar-29 10:33N 43°23' W 001°47'0 0.1
2017-Mar-29 09:33N 43°23' W 001°47'2 2.0
2017-Mar-29 08:33N 43°25' W 001°47'1310.5
2017-Mar-29 07:21N 43°38' W 001°50'16 9.1
2017-Mar-29 05:33N 43°54' W 001°52'4 1.2
2017-Mar-29 02:14N 43°57' W 001°48'1 1.3
2017-Mar-29 01:33N 43°57' W 001°47'0 0.3
2017-Mar-29 00:33N 43°57' W 001°47'2 2.0
2017-Mar-28 23:33N 43°56' W 001°50'4 4.1
2017-Mar-28 22:33N 43°54' W 001°55'9 2.3
2017-Mar-28 18:32N 43°45' W 001°53'9 8.9
2017-Mar-28 17:33N 43°36' W 001°50'9 9.0
2017-Mar-28 16:33N 43°28' W 001°47'4 4.4
2017-Mar-28 15:33N 43°23' W 001°48'0 0.0
2017-Mar-28 14:33N 43°23' W 001°48'0 0.0
2017-Mar-28 13:34N 43°23' W 001°48'0 0.0
2017-Mar-28 12:33N 43°23' W 001°48'0 0.0
2017-Mar-28 11:33N 43°23' W 001°48'0 0.0
2017-Mar-28 10:33N 43°23' W 001°48'0 0.1
2017-Mar-28 09:33N 43°23' W 001°47'0 0.1
2017-Mar-28 08:33N 43°23' W 001°48'3 3.0
2017-Mar-28 07:33N 43°26' W 001°47'15 1.6
2017-Mar-27 22:25N 43°41' W 001°52'18 3.7
2017-Mar-27 17:30N 43°23' W 001°58'7 7.7
2017-Mar-27 16:33N 43°24' W 001°48'1 0.2
2017-Mar-27 11:11N 43°23' W 001°47'0 0.0
2017-Mar-27 10:33N 43°23' W 001°47'0 0.0
2017-Mar-27 09:33N 43°23' W 001°47'0 0.0
2017-Mar-27 08:33N 43°23' W 001°47'0 0.0
2017-Mar-27 07:33N 43°23' W 001°47'  
2017-Mar-23 11:33N 43°23' W 001°47'0 0.1
2017-Mar-23 10:33N 43°23' W 001°47'0 0.0
2017-Mar-23 09:33N 43°23' W 001°47'7 0.6
2017-Mar-22 22:18N 43°23' W 001°57'0 0.4
2017-Mar-22 21:31N 43°23' W 001°57'2 1.1
2017-Mar-22 19:22N 43°24' W 001°54'5 6.5
2017-Mar-22 18:34N 43°23' W 001°47'1 0.1
2017-Mar-22 06:33N 43°24' W 001°47'10 9.1
2017-Mar-22 05:26N 43°23' W 002°01'8 7.9
2017-Mar-22 04:28N 43°28' W 001°53'8 9.1
2017-Mar-22 03:33N 43°35' W 001°47'11 1.1
2017-Mar-21 17:33N 43°24' W 001°51'3 3.1
2017-Mar-21 16:33N 43°23' W 001°47'0 0.0
2017-Mar-21 15:33N 43°23' W 001°47'0 0.0
2017-Mar-21 14:34N 43°23' W 001°47'0 0.0
2017-Mar-21 13:33N 43°23' W 001°47'0 0.0
2017-Mar-21 12:34N 43°23' W 001°47'0 0.0
2017-Mar-21 11:33N 43°23' W 001°47'0 0.0
2017-Mar-21 10:33N 43°23' W 001°47'0 0.0
2017-Mar-21 09:34N 43°23' W 001°48'0 0.0
2017-Mar-21 08:33N 43°23' W 001°48'2 2.0
2017-Mar-21 07:34N 43°24' W 001°50'6 0.5
2017-Mar-20 20:30N 43°22' W 001°58'3 1.0
2017-Mar-20 17:09N 43°24' W 001°54'5 8.3
2017-Mar-20 16:33N 43°24' W 001°47'1 1.0
2017-Mar-20 15:33N 43°23' W 001°48'0 0.0
2017-Mar-20 12:19N 43°23' W 001°48'  
Track history (hours):
 
Tides and Currents Weather Stations Pressure Air Temp Water Temp Dewpoint Dewpoint Depression Visibility Wind Speed Wind Dir Waves Ship Positions

Arrantzale

Last reported at 2017-Mar-30 03:23 UTC. Time now 2017-Mar-30 06:54 UTC.
Position N 43°56' W 001°54'.

Length 32 m.

Type: Fishing. MMSI: 224065290.

Date/timePositionNaut miles runAvg speedWind from/ knotsBaromVisibWave heightAir tempDewpointWater temp
2017-Mar-30 03:23N 43°56' W 001°54'2 2.1
2017-Mar-30 02:33N 43°58' W 001°54'1 0.9
2017-Mar-30 01:22N 43°58' W 001°56'30 6.1
2017-Mar-29 20:29N 43°29' W 001°49'1 1.2
2017-Mar-29 19:33N 43°28' W 001°48'5 4.8
2017-Mar-29 18:33N 43°24' W 001°52'3 2.8
2017-Mar-29 17:33N 43°26' W 001°50'3 3.4
2017-Mar-29 16:33N 43°23' W 001°47'0 0.0
2017-Mar-29 15:33N 43°23' W 001°47'0 0.0
2017-Mar-29 14:33N 43°23' W 001°47'0 0.0
2017-Mar-29 13:33N 43°23' W 001°47'0 0.0
2017-Mar-29 12:33N 43°23' W 001°47'0 0.0
2017-Mar-29 11:33N 43°23' W 001°47'0 0.0
2017-Mar-29 10:33N 43°23' W 001°47'0 0.1
2017-Mar-29 09:33N 43°23' W 001°47'2 2.0
2017-Mar-29 08:33N 43°25' W 001°47'1310.5
2017-Mar-29 07:21N 43°38' W 001°50'16 9.1
2017-Mar-29 05:33N 43°54' W 001°52'4 1.2
2017-Mar-29 02:14N 43°57' W 001°48'1 1.3
2017-Mar-29 01:33N 43°57' W 001°47'0 0.3
2017-Mar-29 00:33N 43°57' W 001°47'2 2.0
2017-Mar-28 23:33N 43°56' W 001°50'4 4.1
2017-Mar-28 22:33N 43°54' W 001°55'9 2.3
2017-Mar-28 18:32N 43°45' W 001°53'9 8.9
2017-Mar-28 17:33N 43°36' W 001°50'9 9.0
2017-Mar-28 16:33N 43°28' W 001°47'4 4.4
2017-Mar-28 15:33N 43°23' W 001°48'0 0.0
2017-Mar-28 14:33N 43°23' W 001°48'0 0.0
2017-Mar-28 13:34N 43°23' W 001°48'0 0.0
2017-Mar-28 12:33N 43°23' W 001°48'0 0.0
2017-Mar-28 11:33N 43°23' W 001°48'0 0.0
2017-Mar-28 10:33N 43°23' W 001°48'0 0.1
2017-Mar-28 09:33N 43°23' W 001°47'0 0.1
2017-Mar-28 08:33N 43°23' W 001°48'3 3.0
2017-Mar-28 07:33N 43°26' W 001°47'15 1.6
2017-Mar-27 22:25N 43°41' W 001°52'18 3.7
2017-Mar-27 17:30N 43°23' W 001°58'7 7.7
2017-Mar-27 16:33N 43°24' W 001°48'1 0.2
2017-Mar-27 11:11N 43°23' W 001°47'0 0.0
2017-Mar-27 10:33N 43°23' W 001°47'0 0.0
2017-Mar-27 09:33N 43°23' W 001°47'0 0.0
2017-Mar-27 08:33N 43°23' W 001°47'0 0.0
2017-Mar-27 07:33N 43°23' W 001°47'  
2017-Mar-23 11:33N 43°23' W 001°47'0 0.1
2017-Mar-23 10:33N 43°23' W 001°47'0 0.0
2017-Mar-23 09:33N 43°23' W 001°47'7 0.6
2017-Mar-22 22:18N 43°23' W 001°57'0 0.4
2017-Mar-22 21:31N 43°23' W 001°57'2 1.1
2017-Mar-22 19:22N 43°24' W 001°54'5 6.5
2017-Mar-22 18:34N 43°23' W 001°47'1 0.1
2017-Mar-22 06:33N 43°24' W 001°47'10 9.1
2017-Mar-22 05:26N 43°23' W 002°01'8 7.9
2017-Mar-22 04:28N 43°28' W 001°53'8 9.1
2017-Mar-22 03:33N 43°35' W 001°47'11 1.1
2017-Mar-21 17:33N 43°24' W 001°51'3 3.1
2017-Mar-21 16:33N 43°23' W 001°47'0 0.0
2017-Mar-21 15:33N 43°23' W 001°47'0 0.0
2017-Mar-21 14:34N 43°23' W 001°47'0 0.0
2017-Mar-21 13:33N 43°23' W 001°47'0 0.0
2017-Mar-21 12:34N 43°23' W 001°47'0 0.0
2017-Mar-21 11:33N 43°23' W 001°47'0 0.0
2017-Mar-21 10:33N 43°23' W 001°47'0 0.0
2017-Mar-21 09:34N 43°23' W 001°48'0 0.0
2017-Mar-21 08:33N 43°23' W 001°48'2 2.0
2017-Mar-21 07:34N 43°24' W 001°50'6 0.5
2017-Mar-20 20:30N 43°22' W 001°58'3 1.0
2017-Mar-20 17:09N 43°24' W 001°54'5 8.3
2017-Mar-20 16:33N 43°24' W 001°47'1 1.0
2017-Mar-20 15:33N 43°23' W 001°48'0 0.0
2017-Mar-20 12:19N 43°23' W 001°48'  

Dump ship's entire track history